sensor_id;sensor_type;location;lat;lon;timestamp;temperature;humidity
24103;DHT22;12278;53.058;9.028;2023-08-12T00:02:52;21.00;99.90
24103;DHT22;12278;53.058;9.028;2023-08-12T00:06:53;20.80;99.90
24103;DHT22;12278;53.058;9.028;2023-08-12T00:10:53;20.90;99.90
24103;DHT22;12278;53.058;9.028;2023-08-12T00:14:54;21.00;99.90
24103;DHT22;12278;53.058;9.028;2023-08-12T00:18:54;20.80;99.90
24103;DHT22;12278;53.058;9.028;2023-08-12T00:22:56;20.80;99.90
24103;DHT22;12278;53.058;9.028;2023-08-12T00:26:56;20.60;99.90
24103;DHT22;12278;53.058;9.028;2023-08-12T00:30:57;20.50;99.90
24103;DHT22;12278;53.058;9.028;2023-08-12T00:34:57;20.30;99.90
24103;DHT22;12278;53.058;9.028;2023-08-12T00:38:58;20.30;99.90
24103;DHT22;12278;53.058;9.028;2023-08-12T00:42:59;20.50;99.90
24103;DHT22;12278;53.058;9.028;2023-08-12T00:46:59;20.40;99.90
24103;DHT22;12278;53.058;9.028;2023-08-12T00:51:00;20.40;99.90
24103;DHT22;12278;53.058;9.028;2023-08-12T00:55:02;20.30;99.90
24103;DHT22;12278;53.058;9.028;2023-08-12T00:59:04;20.50;99.90
24103;DHT22;12278;53.058;9.028;2023-08-12T01:03:06;20.40;99.90
24103;DHT22;12278;53.058;9.028;2023-08-12T01:07:07;20.30;99.90
24103;DHT22;12278;53.058;9.028;2023-08-12T01:11:24;20.10;99.90
24103;DHT22;12278;53.058;9.028;2023-08-12T01:15:26;20.20;99.90
24103;DHT22;12278;53.058;9.028;2023-08-12T01:19:39;20.10;99.90
24103;DHT22;12278;53.058;9.028;2023-08-12T01:23:40;20.00;99.90
24103;DHT22;12278;53.058;9.028;2023-08-12T01:27:41;20.00;99.90
24103;DHT22;12278;53.058;9.028;2023-08-12T01:31:57;20.10;99.90
24103;DHT22;12278;53.058;9.028;2023-08-12T01:36:09;20.20;99.90
24103;DHT22;12278;53.058;9.028;2023-08-12T01:40:14;20.20;99.90
24103;DHT22;12278;53.058;9.028;2023-08-12T01:44:16;20.40;99.90
24103;DHT22;12278;53.058;9.028;2023-08-12T01:48:17;20.30;99.90
24103;DHT22;12278;53.058;9.028;2023-08-12T01:52:20;20.30;99.90
24103;DHT22;12278;53.058;9.028;2023-08-12T01:56:20;20.30;99.90
24103;DHT22;12278;53.058;9.028;2023-08-12T02:00:21;20.30;99.90
24103;DHT22;12278;53.058;9.028;2023-08-12T02:04:22;20.30;99.90
24103;DHT22;12278;53.058;9.028;2023-08-12T02:08:22;20.30;99.90
24103;DHT22;12278;53.058;9.028;2023-08-12T02:12:23;20.30;99.90
24103;DHT22;12278;53.058;9.028;2023-08-12T02:16:23;20.20;99.90
24103;DHT22;12278;53.058;9.028;2023-08-12T02:20:24;20.20;99.90
24103;DHT22;12278;53.058;9.028;2023-08-12T02:24:25;20.00;99.90
24103;DHT22;12278;53.058;9.028;2023-08-12T02:28:26;20.00;99.90
24103;DHT22;12278;53.058;9.028;2023-08-12T02:32:26;20.10;99.90
24103;DHT22;12278;53.058;9.028;2023-08-12T02:36:27;20.10;99.90
24103;DHT22;12278;53.058;9.028;2023-08-12T02:40:28;20.20;99.90
24103;DHT22;12278;53.058;9.028;2023-08-12T02:44:28;20.10;99.90
24103;DHT22;12278;53.058;9.028;2023-08-12T02:48:29;20.10;99.90
24103;DHT22;12278;53.058;9.028;2023-08-12T02:52:30;20.00;99.90
24103;DHT22;12278;53.058;9.028;2023-08-12T02:56:30;20.00;99.90
24103;DHT22;12278;53.058;9.028;2023-08-12T03:00:31;20.00;99.90
24103;DHT22;12278;53.058;9.028;2023-08-12T03:04:32;20.00;99.90
24103;DHT22;12278;53.058;9.028;2023-08-12T03:08:32;20.00;99.90
24103;DHT22;12278;53.058;9.028;2023-08-12T03:12:33;20.10;99.90
24103;DHT22;12278;53.058;9.028;2023-08-12T03:16:34;20.10;99.90
24103;DHT22;12278;53.058;9.028;2023-08-12T03:20:36;20.10;99.90
24103;DHT22;12278;53.058;9.028;2023-08-12T03:24:37;20.10;99.90
24103;DHT22;12278;53.058;9.028;2023-08-12T03:28:38;20.10;99.90
24103;DHT22;12278;53.058;9.028;2023-08-12T03:32:39;20.10;99.90
24103;DHT22;12278;53.058;9.028;2023-08-12T03:36:39;19.90;99.90
24103;DHT22;12278;53.058;9.028;2023-08-12T03:40:40;19.90;99.90
24103;DHT22;12278;53.058;9.028;2023-08-12T03:44:41;19.90;99.90
24103;DHT22;12278;53.058;9.028;2023-08-12T03:48:42;20.00;99.90
24103;DHT22;12278;53.058;9.028;2023-08-12T03:52:43;19.90;99.90
24103;DHT22;12278;53.058;9.028;2023-08-12T03:56:43;19.90;99.90
24103;DHT22;12278;53.058;9.028;2023-08-12T04:00:44;19.90;99.90
24103;DHT22;12278;53.058;9.028;2023-08-12T04:04:44;19.90;99.90
24103;DHT22;12278;53.058;9.028;2023-08-12T04:08:45;19.90;99.90
24103;DHT22;12278;53.058;9.028;2023-08-12T04:12:46;19.80;99.90
24103;DHT22;12278;53.058;9.028;2023-08-12T04:16:46;19.90;99.90
24103;DHT22;12278;53.058;9.028;2023-08-12T04:20:49;19.90;99.90
24103;DHT22;12278;53.058;9.028;2023-08-12T04:24:50;19.70;99.90
24103;DHT22;12278;53.058;9.028;2023-08-12T04:28:51;19.70;99.90
24103;DHT22;12278;53.058;9.028;2023-08-12T04:32:51;19.70;99.90
24103;DHT22;12278;53.058;9.028;2023-08-12T04:36:52;19.60;99.90
24103;DHT22;12278;53.058;9.028;2023-08-12T04:40:53;19.60;99.90
24103;DHT22;12278;53.058;9.028;2023-08-12T04:44:54;19.70;99.90
24103;DHT22;12278;53.058;9.028;2023-08-12T04:48:55;19.70;99.90
24103;DHT22;12278;53.058;9.028;2023-08-12T04:52:55;19.80;99.90
24103;DHT22;12278;53.058;9.028;2023-08-12T04:56:56;19.90;99.90
24103;DHT22;12278;53.058;9.028;2023-08-12T05:00:57;19.80;99.90
24103;DHT22;12278;53.058;9.028;2023-08-12T05:04:57;19.90;99.90
24103;DHT22;12278;53.058;9.028;2023-08-12T05:08:58;19.90;99.90
24103;DHT22;12278;53.058;9.028;2023-08-12T05:12:59;20.00;99.90
24103;DHT22;12278;53.058;9.028;2023-08-12T05:16:59;19.90;99.90
24103;DHT22;12278;53.058;9.028;2023-08-12T05:21:00;19.70;99.90
24103;DHT22;12278;53.058;9.028;2023-08-12T05:25:01;19.50;99.90
24103;DHT22;12278;53.058;9.028;2023-08-12T05:29:01;19.50;99.90
24103;DHT22;12278;53.058;9.028;2023-08-12T05:33:02;19.60;99.90
24103;DHT22;12278;53.058;9.028;2023-08-12T05:37:03;19.70;99.90
24103;DHT22;12278;53.058;9.028;2023-08-12T05:41:03;19.60;99.90
24103;DHT22;12278;53.058;9.028;2023-08-12T05:45:07;19.70;99.90
24103;DHT22;12278;53.058;9.028;2023-08-12T05:49:08;19.70;99.90
24103;DHT22;12278;53.058;9.028;2023-08-12T05:53:09;19.80;99.90
24103;DHT22;12278;53.058;9.028;2023-08-12T05:57:10;19.80;99.90
24103;DHT22;12278;53.058;9.028;2023-08-12T06:01:10;19.70;99.90
24103;DHT22;12278;53.058;9.028;2023-08-12T06:05:11;19.80;99.90
24103;DHT22;12278;53.058;9.028;2023-08-12T06:09:12;20.00;99.90
24103;DHT22;12278;53.058;9.028;2023-08-12T06:13:12;20.10;99.90
24103;DHT22;12278;53.058;9.028;2023-08-12T06:17:13;20.10;99.90
24103;DHT22;12278;53.058;9.028;2023-08-12T06:21:14;20.20;99.90
24103;DHT22;12278;53.058;9.028;2023-08-12T06:25:14;20.20;99.90
24103;DHT22;12278;53.058;9.028;2023-08-12T06:29:15;20.30;99.90
24103;DHT22;12278;53.058;9.028;2023-08-12T06:33:16;20.20;99.90
24103;DHT22;12278;53.058;9.028;2023-08-12T06:37:17;20.20;99.90
24103;DHT22;12278;53.058;9.028;2023-08-12T06:41:17;20.30;99.90
24103;DHT22;12278;53.058;9.028;2023-08-12T06:45:18;20.30;99.90
24103;DHT22;12278;53.058;9.028;2023-08-12T06:49:18;20.30;99.90
24103;DHT22;12278;53.058;9.028;2023-08-12T06:53:19;20.30;99.90
24103;DHT22;12278;53.058;9.028;2023-08-12T06:57:20;20.30;99.90
24103;DHT22;12278;53.058;9.028;2023-08-12T07:01:20;20.30;99.90
24103;DHT22;12278;53.058;9.028;2023-08-12T07:05:21;20.30;99.90
24103;DHT22;12278;53.058;9.028;2023-08-12T07:09:22;20.30;99.90
24103;DHT22;12278;53.058;9.028;2023-08-12T07:13:22;20.30;99.90
24103;DHT22;12278;53.058;9.028;2023-08-12T07:17:23;20.20;99.90
24103;DHT22;12278;53.058;9.028;2023-08-12T07:21:24;20.10;99.90
24103;DHT22;12278;53.058;9.028;2023-08-12T07:25:24;20.30;99.90
24103;DHT22;12278;53.058;9.028;2023-08-12T07:29:28;20.50;99.90
24103;DHT22;12278;53.058;9.028;2023-08-12T07:33:28;20.60;99.90
24103;DHT22;12278;53.058;9.028;2023-08-12T07:37:29;20.70;99.90
24103;DHT22;12278;53.058;9.028;2023-08-12T07:41:30;20.70;99.90
24103;DHT22;12278;53.058;9.028;2023-08-12T07:45:30;20.70;99.90
24103;DHT22;12278;53.058;9.028;2023-08-12T07:49:31;20.80;99.90
24103;DHT22;12278;53.058;9.028;2023-08-12T07:53:32;20.90;99.90
24103;DHT22;12278;53.058;9.028;2023-08-12T07:57:33;21.00;99.90
24103;DHT22;12278;53.058;9.028;2023-08-12T08:01:33;21.10;99.90
24103;DHT22;12278;53.058;9.028;2023-08-12T08:05:34;21.20;99.90
24103;DHT22;12278;53.058;9.028;2023-08-12T08:09:35;21.30;99.90
24103;DHT22;12278;53.058;9.028;2023-08-12T08:13:35;21.30;99.90
24103;DHT22;12278;53.058;9.028;2023-08-12T08:17:36;21.70;99.90
24103;DHT22;12278;53.058;9.028;2023-08-12T08:21:37;22.10;99.90
24103;DHT22;12278;53.058;9.028;2023-08-12T08:25:37;22.00;99.90
24103;DHT22;12278;53.058;9.028;2023-08-12T08:29:38;21.80;99.90
24103;DHT22;12278;53.058;9.028;2023-08-12T08:33:39;21.70;99.90
24103;DHT22;12278;53.058;9.028;2023-08-12T08:37:40;21.60;99.90
24103;DHT22;12278;53.058;9.028;2023-08-12T08:41:42;21.50;99.90
24103;DHT22;12278;53.058;9.028;2023-08-12T08:45:44;21.30;99.90
24103;DHT22;12278;53.058;9.028;2023-08-12T08:49:46;21.20;99.90
24103;DHT22;12278;53.058;9.028;2023-08-12T08:53:47;21.20;99.90
24103;DHT22;12278;53.058;9.028;2023-08-12T08:57:49;21.10;99.90
24103;DHT22;12278;53.058;9.028;2023-08-12T09:01:50;21.10;99.90
24103;DHT22;12278;53.058;9.028;2023-08-12T09:05:55;21.10;99.90
24103;DHT22;12278;53.058;9.028;2023-08-12T09:09:58;21.00;99.90
24103;DHT22;12278;53.058;9.028;2023-08-12T09:14:01;20.90;99.90
24103;DHT22;12278;53.058;9.028;2023-08-12T09:18:01;21.00;99.90
24103;DHT22;12278;53.058;9.028;2023-08-12T09:22:05;21.00;99.90
24103;DHT22;12278;53.058;9.028;2023-08-12T09:26:17;21.10;99.90
24103;DHT22;12278;53.058;9.028;2023-08-12T09:30:20;21.10;99.90
24103;DHT22;12278;53.058;9.028;2023-08-12T09:34:21;21.10;99.90
24103;DHT22;12278;53.058;9.028;2023-08-12T09:38:24;21.00;99.90
24103;DHT22;12278;53.058;9.028;2023-08-12T09:42:26;21.00;99.90
24103;DHT22;12278;53.058;9.028;2023-08-12T09:46:28;20.90;99.90
24103;DHT22;12278;53.058;9.028;2023-08-12T09:50:28;20.80;99.90
24103;DHT22;12278;53.058;9.028;2023-08-12T09:54:31;20.90;99.90
24103;DHT22;12278;53.058;9.028;2023-08-12T09:58:32;20.90;99.90
24103;DHT22;12278;53.058;9.028;2023-08-12T10:02:33;20.90;99.90
24103;DHT22;12278;53.058;9.028;2023-08-12T10:06:34;21.00;99.90
24103;DHT22;12278;53.058;9.028;2023-08-12T10:10:36;21.10;99.90
24103;DHT22;12278;53.058;9.028;2023-08-12T10:14:37;21.10;99.90
24103;DHT22;12278;53.058;9.028;2023-08-12T10:18:39;21.20;99.90
24103;DHT22;12278;53.058;9.028;2023-08-12T10:22:40;21.30;99.90
24103;DHT22;12278;53.058;9.028;2023-08-12T10:26:44;21.30;99.90
24103;DHT22;12278;53.058;9.028;2023-08-12T10:30:45;21.30;99.90
24103;DHT22;12278;53.058;9.028;2023-08-12T10:39:42;21.40;99.90
24103;DHT22;12278;53.058;9.028;2023-08-12T10:44:11;21.40;99.90
24103;DHT22;12278;53.058;9.028;2023-08-12T10:48:22;21.40;99.90
24103;DHT22;12278;53.058;9.028;2023-08-12T10:52:31;21.50;99.90
24103;DHT22;12278;53.058;9.028;2023-08-12T10:57:10;21.60;99.90
24103;DHT22;12278;53.058;9.028;2023-08-12T11:01:19;21.30;99.90
24103;DHT22;12278;53.058;9.028;2023-08-12T11:05:20;21.20;99.90
24103;DHT22;12278;53.058;9.028;2023-08-12T11:09:24;21.10;99.90
24103;DHT22;12278;53.058;9.028;2023-08-12T11:18:15;21.00;99.90
24103;DHT22;12278;53.058;9.028;2023-08-12T11:22:22;21.10;99.90
24103;DHT22;12278;53.058;9.028;2023-08-12T11:26:23;21.10;99.90
24103;DHT22;12278;53.058;9.028;2023-08-12T11:30:23;21.30;99.90
24103;DHT22;12278;53.058;9.028;2023-08-12T11:34:27;21.40;99.90
24103;DHT22;12278;53.058;9.028;2023-08-12T11:38:28;21.50;99.90
24103;DHT22;12278;53.058;9.028;2023-08-12T11:42:29;21.50;99.90
24103;DHT22;12278;53.058;9.028;2023-08-12T11:46:32;21.70;99.90
24103;DHT22;12278;53.058;9.028;2023-08-12T11:50:33;21.80;99.90
24103;DHT22;12278;53.058;9.028;2023-08-12T11:54:51;21.80;99.90
24103;DHT22;12278;53.058;9.028;2023-08-12T11:59:15;21.90;99.90
24103;DHT22;12278;53.058;9.028;2023-08-12T12:03:16;21.90;99.90
24103;DHT22;12278;53.058;9.028;2023-08-12T12:07:21;21.80;99.90
24103;DHT22;12278;53.058;9.028;2023-08-12T12:11:22;21.80;99.90
24103;DHT22;12278;53.058;9.028;2023-08-12T12:15:22;21.70;99.90
24103;DHT22;12278;53.058;9.028;2023-08-12T12:19:23;21.80;99.90
24103;DHT22;12278;53.058;9.028;2023-08-12T12:23:30;21.90;99.90
24103;DHT22;12278;53.058;9.028;2023-08-12T12:27:31;21.90;99.90
24103;DHT22;12278;53.058;9.028;2023-08-12T12:31:32;22.00;99.90
24103;DHT22;12278;53.058;9.028;2023-08-12T12:35:33;21.90;99.90
24103;DHT22;12278;53.058;9.028;2023-08-12T12:39:34;21.90;99.90
24103;DHT22;12278;53.058;9.028;2023-08-12T12:43:35;21.90;99.90
24103;DHT22;12278;53.058;9.028;2023-08-12T12:47:35;21.90;99.90
24103;DHT22;12278;53.058;9.028;2023-08-12T12:51:36;21.90;99.90
24103;DHT22;12278;53.058;9.028;2023-08-12T12:55:37;22.00;99.90
24103;DHT22;12278;53.058;9.028;2023-08-12T12:59:37;22.20;99.90
24103;DHT22;12278;53.058;9.028;2023-08-12T13:03:38;22.50;99.90
24103;DHT22;12278;53.058;9.028;2023-08-12T13:07:38;22.70;99.90
24103;DHT22;12278;53.058;9.028;2023-08-12T13:11:39;22.90;99.90
24103;DHT22;12278;53.058;9.028;2023-08-12T13:15:39;22.80;99.90
24103;DHT22;12278;53.058;9.028;2023-08-12T13:19:40;22.70;99.90
24103;DHT22;12278;53.058;9.028;2023-08-12T13:23:40;22.30;99.90
24103;DHT22;12278;53.058;9.028;2023-08-12T13:27:41;22.20;99.90
24103;DHT22;12278;53.058;9.028;2023-08-12T13:31:48;22.20;99.90
24103;DHT22;12278;53.058;9.028;2023-08-12T13:35:48;22.00;99.90
24103;DHT22;12278;53.058;9.028;2023-08-12T13:39:49;21.90;99.90
24103;DHT22;12278;53.058;9.028;2023-08-12T13:43:50;21.90;99.90
24103;DHT22;12278;53.058;9.028;2023-08-12T13:47:50;22.00;99.90
24103;DHT22;12278;53.058;9.028;2023-08-12T13:51:51;22.10;99.90
24103;DHT22;12278;53.058;9.028;2023-08-12T13:55:52;22.00;99.90
24103;DHT22;12278;53.058;9.028;2023-08-12T13:59:52;21.80;99.90
24103;DHT22;12278;53.058;9.028;2023-08-12T14:03:55;21.80;99.90
24103;DHT22;12278;53.058;9.028;2023-08-12T14:07:56;22.30;99.90
24103;DHT22;12278;53.058;9.028;2023-08-12T14:11:56;22.60;99.90
24103;DHT22;12278;53.058;9.028;2023-08-12T14:15:57;23.20;99.90
24103;DHT22;12278;53.058;9.028;2023-08-12T14:19:57;24.00;99.90
24103;DHT22;12278;53.058;9.028;2023-08-12T14:23:59;23.90;99.90
24103;DHT22;12278;53.058;9.028;2023-08-12T14:28:03;25.10;99.90
24103;DHT22;12278;53.058;9.028;2023-08-12T14:32:04;25.20;99.90
24103;DHT22;12278;53.058;9.028;2023-08-12T14:36:05;24.00;99.90
24103;DHT22;12278;53.058;9.028;2023-08-12T14:40:06;23.30;99.90
24103;DHT22;12278;53.058;9.028;2023-08-12T14:44:07;22.90;99.90
24103;DHT22;12278;53.058;9.028;2023-08-12T14:48:08;22.90;99.90
24103;DHT22;12278;53.058;9.028;2023-08-12T14:52:18;24.70;99.90
24103;DHT22;12278;53.058;9.028;2023-08-12T14:56:19;27.90;99.90
24103;DHT22;12278;53.058;9.028;2023-08-12T15:00:19;27.40;99.90
24103;DHT22;12278;53.058;9.028;2023-08-12T15:04:20;25.90;99.90
24103;DHT22;12278;53.058;9.028;2023-08-12T15:08:20;23.80;99.90
24103;DHT22;12278;53.058;9.028;2023-08-12T15:12:21;23.10;99.90
24103;DHT22;12278;53.058;9.028;2023-08-12T15:16:21;25.00;99.90
24103;DHT22;12278;53.058;9.028;2023-08-12T15:20:22;25.60;99.90
24103;DHT22;12278;53.058;9.028;2023-08-12T15:24:23;26.70;99.90
24103;DHT22;12278;53.058;9.028;2023-08-12T15:28:23;27.30;99.90
24103;DHT22;12278;53.058;9.028;2023-08-12T15:32:27;28.90;99.90
24103;DHT22;12278;53.058;9.028;2023-08-12T15:36:27;28.40;99.90
24103;DHT22;12278;53.058;9.028;2023-08-12T15:40:28;28.70;99.90
24103;DHT22;12278;53.058;9.028;2023-08-12T15:44:28;27.40;99.90
24103;DHT22;12278;53.058;9.028;2023-08-12T15:48:29;27.40;99.90
24103;DHT22;12278;53.058;9.028;2023-08-12T15:52:30;28.50;99.90
24103;DHT22;12278;53.058;9.028;2023-08-12T15:56:33;29.60;99.90
24103;DHT22;12278;53.058;9.028;2023-08-12T16:00:36;28.90;99.90
24103;DHT22;12278;53.058;9.028;2023-08-12T16:04:37;27.90;99.90
24103;DHT22;12278;53.058;9.028;2023-08-12T16:08:37;28.50;99.90
24103;DHT22;12278;53.058;9.028;2023-08-12T16:12:39;27.70;99.90
24103;DHT22;12278;53.058;9.028;2023-08-12T16:16:39;27.00;99.90
24103;DHT22;12278;53.058;9.028;2023-08-12T16:20:40;26.30;99.90
24103;DHT22;12278;53.058;9.028;2023-08-12T16:24:40;26.00;99.90
24103;DHT22;12278;53.058;9.028;2023-08-12T16:28:41;25.10;99.90
24103;DHT22;12278;53.058;9.028;2023-08-12T16:32:41;24.10;99.90
24103;DHT22;12278;53.058;9.028;2023-08-12T16:36:42;23.70;99.90
24103;DHT22;12278;53.058;9.028;2023-08-12T16:40:42;23.70;99.90
24103;DHT22;12278;53.058;9.028;2023-08-12T16:44:43;25.50;99.90
24103;DHT22;12278;53.058;9.028;2023-08-12T16:48:43;26.00;99.90
24103;DHT22;12278;53.058;9.028;2023-08-12T16:52:44;24.70;99.90
24103;DHT22;12278;53.058;9.028;2023-08-12T16:56:44;24.30;99.90
24103;DHT22;12278;53.058;9.028;2023-08-12T17:00:45;24.00;99.90
24103;DHT22;12278;53.058;9.028;2023-08-12T17:04:46;23.50;99.90
24103;DHT22;12278;53.058;9.028;2023-08-12T17:08:47;23.20;99.90
24103;DHT22;12278;53.058;9.028;2023-08-12T17:12:47;23.00;99.90
24103;DHT22;12278;53.058;9.028;2023-08-12T17:16:48;22.90;99.90
24103;DHT22;12278;53.058;9.028;2023-08-12T17:20:48;22.70;99.90
24103;DHT22;12278;53.058;9.028;2023-08-12T17:24:49;22.80;99.90
24103;DHT22;12278;53.058;9.028;2023-08-12T17:28:49;22.60;99.90
24103;DHT22;12278;53.058;9.028;2023-08-12T17:32:51;22.40;99.90
24103;DHT22;12278;53.058;9.028;2023-08-12T17:36:54;22.20;99.90
24103;DHT22;12278;53.058;9.028;2023-08-12T17:40:55;22.10;99.90
24103;DHT22;12278;53.058;9.028;2023-08-12T17:44:56;22.00;99.90
24103;DHT22;12278;53.058;9.028;2023-08-12T17:48:59;22.00;99.90
24103;DHT22;12278;53.058;9.028;2023-08-12T17:52:59;22.20;99.90
24103;DHT22;12278;53.058;9.028;2023-08-12T17:57:00;22.30;99.90
24103;DHT22;12278;53.058;9.028;2023-08-12T18:01:00;22.30;99.90
24103;DHT22;12278;53.058;9.028;2023-08-12T18:05:01;22.10;99.90
24103;DHT22;12278;53.058;9.028;2023-08-12T18:09:01;21.90;99.90
24103;DHT22;12278;53.058;9.028;2023-08-12T18:13:03;21.80;99.90
24103;DHT22;12278;53.058;9.028;2023-08-12T18:17:04;21.60;99.90
24103;DHT22;12278;53.058;9.028;2023-08-12T18:21:04;21.50;99.90
24103;DHT22;12278;53.058;9.028;2023-08-12T18:25:05;21.50;99.90
24103;DHT22;12278;53.058;9.028;2023-08-12T18:29:06;21.30;99.90
24103;DHT22;12278;53.058;9.028;2023-08-12T18:33:08;21.10;99.90
24103;DHT22;12278;53.058;9.028;2023-08-12T18:37:08;20.90;99.90
24103;DHT22;12278;53.058;9.028;2023-08-12T18:41:09;20.60;99.90
24103;DHT22;12278;53.058;9.028;2023-08-12T18:45:09;20.60;99.90
24103;DHT22;12278;53.058;9.028;2023-08-12T18:49:10;20.40;99.90
24103;DHT22;12278;53.058;9.028;2023-08-12T18:53:10;20.30;99.90
24103;DHT22;12278;53.058;9.028;2023-08-12T18:57:11;20.20;99.90
24103;DHT22;12278;53.058;9.028;2023-08-12T19:01:11;20.10;99.90
24103;DHT22;12278;53.058;9.028;2023-08-12T19:05:12;20.00;99.90
24103;DHT22;12278;53.058;9.028;2023-08-12T19:09:13;19.90;99.90
24103;DHT22;12278;53.058;9.028;2023-08-12T19:13:14;19.80;99.90
24103;DHT22;12278;53.058;9.028;2023-08-12T19:17:14;19.80;99.90
24103;DHT22;12278;53.058;9.028;2023-08-12T19:21:15;19.60;99.90
24103;DHT22;12278;53.058;9.028;2023-08-12T19:25:16;19.50;99.90
24103;DHT22;12278;53.058;9.028;2023-08-12T19:29:16;19.50;99.90
24103;DHT22;12278;53.058;9.028;2023-08-12T19:33:17;19.40;99.90
24103;DHT22;12278;53.058;9.028;2023-08-12T19:37:19;19.20;99.90
24103;DHT22;12278;53.058;9.028;2023-08-12T19:41:19;19.10;99.90
24103;DHT22;12278;53.058;9.028;2023-08-12T19:45:20;19.10;99.90
24103;DHT22;12278;53.058;9.028;2023-08-12T19:49:21;19.10;99.90
24103;DHT22;12278;53.058;9.028;2023-08-12T19:53:22;19.00;99.90
24103;DHT22;12278;53.058;9.028;2023-08-12T19:57:23;18.90;99.90
24103;DHT22;12278;53.058;9.028;2023-08-12T20:01:26;18.60;99.90
24103;DHT22;12278;53.058;9.028;2023-08-12T20:05:27;18.50;99.90
24103;DHT22;12278;53.058;9.028;2023-08-12T20:09:28;18.50;99.90
24103;DHT22;12278;53.058;9.028;2023-08-12T20:13:29;18.50;99.90
24103;DHT22;12278;53.058;9.028;2023-08-12T20:17:31;18.40;99.90
24103;DHT22;12278;53.058;9.028;2023-08-12T20:21:32;18.40;99.90
24103;DHT22;12278;53.058;9.028;2023-08-12T20:25:33;18.40;99.90
24103;DHT22;12278;53.058;9.028;2023-08-12T20:29:36;18.30;99.90
24103;DHT22;12278;53.058;9.028;2023-08-12T20:33:36;18.30;99.90
24103;DHT22;12278;53.058;9.028;2023-08-12T20:37:37;18.30;99.90
24103;DHT22;12278;53.058;9.028;2023-08-12T20:41:37;18.20;99.90
24103;DHT22;12278;53.058;9.028;2023-08-12T20:45:38;18.20;99.90
24103;DHT22;12278;53.058;9.028;2023-08-12T20:49:39;18.10;99.90
24103;DHT22;12278;53.058;9.028;2023-08-12T20:53:40;18.20;99.90
24103;DHT22;12278;53.058;9.028;2023-08-12T20:57:41;18.20;99.90
24103;DHT22;12278;53.058;9.028;2023-08-12T21:01:41;18.10;99.90
24103;DHT22;12278;53.058;9.028;2023-08-12T21:05:49;18.20;99.90
24103;DHT22;12278;53.058;9.028;2023-08-12T21:09:51;18.10;99.90
24103;DHT22;12278;53.058;9.028;2023-08-12T21:13:51;18.00;99.90
24103;DHT22;12278;53.058;9.028;2023-08-12T21:17:53;17.90;99.90
24103;DHT22;12278;53.058;9.028;2023-08-12T21:21:53;17.90;99.90
24103;DHT22;12278;53.058;9.028;2023-08-12T21:25:54;17.80;99.90
24103;DHT22;12278;53.058;9.028;2023-08-12T21:29:55;17.80;99.90
24103;DHT22;12278;53.058;9.028;2023-08-12T21:33:55;17.70;99.90
24103;DHT22;12278;53.058;9.028;2023-08-12T21:37:56;17.70;99.90
24103;DHT22;12278;53.058;9.028;2023-08-12T21:41:57;17.60;99.90
24103;DHT22;12278;53.058;9.028;2023-08-12T21:45:57;17.60;99.90
24103;DHT22;12278;53.058;9.028;2023-08-12T21:49:58;17.50;99.90
24103;DHT22;12278;53.058;9.028;2023-08-12T21:53:59;17.40;99.90
24103;DHT22;12278;53.058;9.028;2023-08-12T21:57:59;17.50;99.90
24103;DHT22;12278;53.058;9.028;2023-08-12T22:02:01;17.40;99.90
24103;DHT22;12278;53.058;9.028;2023-08-12T22:06:04;17.30;99.90
24103;DHT22;12278;53.058;9.028;2023-08-12T22:10:05;17.30;99.90
24103;DHT22;12278;53.058;9.028;2023-08-12T22:14:06;17.40;99.90
24103;DHT22;12278;53.058;9.028;2023-08-12T22:18:07;17.30;99.90
24103;DHT22;12278;53.058;9.028;2023-08-12T22:22:08;17.30;99.90
24103;DHT22;12278;53.058;9.028;2023-08-12T22:26:08;17.20;99.90
24103;DHT22;12278;53.058;9.028;2023-08-12T22:30:09;17.20;99.90
24103;DHT22;12278;53.058;9.028;2023-08-12T22:34:10;17.20;99.90
24103;DHT22;12278;53.058;9.028;2023-08-12T22:38:11;17.10;99.90
24103;DHT22;12278;53.058;9.028;2023-08-12T22:42:12;17.00;99.90
24103;DHT22;12278;53.058;9.028;2023-08-12T22:46:14;17.00;99.90
24103;DHT22;12278;53.058;9.028;2023-08-12T22:50:14;17.00;99.90
24103;DHT22;12278;53.058;9.028;2023-08-12T22:54:15;17.00;99.90
24103;DHT22;12278;53.058;9.028;2023-08-12T22:58:16;17.00;99.90
24103;DHT22;12278;53.058;9.028;2023-08-12T23:02:16;17.00;99.90
24103;DHT22;12278;53.058;9.028;2023-08-12T23:06:17;16.90;99.90
24103;DHT22;12278;53.058;9.028;2023-08-12T23:10:18;16.90;99.90
24103;DHT22;12278;53.058;9.028;2023-08-12T23:14:18;16.80;99.90
24103;DHT22;12278;53.058;9.028;2023-08-12T23:18:19;16.80;99.90
24103;DHT22;12278;53.058;9.028;2023-08-12T23:22:20;16.80;99.90
24103;DHT22;12278;53.058;9.028;2023-08-12T23:26:21;16.90;99.90
24103;DHT22;12278;53.058;9.028;2023-08-12T23:30:21;16.90;99.90
24103;DHT22;12278;53.058;9.028;2023-08-12T23:34:22;16.80;99.90
24103;DHT22;12278;53.058;9.028;2023-08-12T23:38:23;16.80;99.90
24103;DHT22;12278;53.058;9.028;2023-08-12T23:42:23;16.90;99.90
24103;DHT22;12278;53.058;9.028;2023-08-12T23:46:24;16.70;99.90
24103;DHT22;12278;53.058;9.028;2023-08-12T23:50:24;16.60;99.90
24103;DHT22;12278;53.058;9.028;2023-08-12T23:54:25;16.70;99.90
24103;DHT22;12278;53.058;9.028;2023-08-12T23:58:26;16.60;99.90
